Time;durP1;ratioP1;P1;durP2;ratioP2;P2;SDS_P1;SDS_P2;PMS_P1;PMS_P2;Temp;Humidity;BMP_temperature;BMP_pressure;BME280_temperature;BME280_humidity;BME280_pressure;Samples;Min_cycle;Max_cycle;Signal;HPM_P1;HPM_P2
2023/07/08 00:01:08;;;;;;;5.72;2.72;;;;;;;;;;5032403;28;20040;-61
2023/07/08 00:03:33;;;;;;;7.30;3.05;;;;;;;;;;5031783;28;20032;-61
2023/07/08 00:05:59;;;;;;;6.50;3.15;;;;;;;;;;5034114;28;20037;-62
2023/07/08 00:08:25;;;;;;;4.15;2.60;;;;;;;;;;5065592;28;20391;-63
2023/07/08 00:10:51;;;;;;;4.65;2.90;;;;;;;;;;5047603;28;20025;-61
2023/07/08 00:13:18;;;;;;;4.20;2.80;;;;;;;;;;5031496;28;20033;-64
2023/07/08 00:15:44;;;;;;;4.80;2.72;;;;;;;;;;5032407;28;20033;-60
2023/07/08 00:18:15;;;;;;;8.93;3.05;;;;;;;;;;5062495;28;20491;-61
2023/07/08 00:20:43;;;;;;;5.45;2.83;;;;;;;;;;5072160;28;20040;-61
2023/07/08 00:23:09;;;;;;;4.97;2.65;;;;;;;;;;5052538;28;20303;-61
2023/07/08 00:25:34;;;;;;;6.03;3.00;;;;;;;;;;5040063;28;20108;-61
2023/07/08 00:28:00;;;;;;;4.53;2.80;;;;;;;;;;5030395;28;20041;-60
2023/07/08 00:30:30;;;;;;;5.10;2.90;;;;;;;;;;5049955;28;20029;-61
2023/07/08 00:32:57;;;;;;;6.00;2.92;;;;;;;;;;5042880;28;20033;-61
2023/07/08 00:35:29;;;;;;;5.10;3.00;;;;;;;;;;5051104;28;20048;-61
2023/07/08 00:38:01;;;;;;;7.00;2.80;;;;;;;;;;5042300;28;20041;-61
2023/07/08 00:40:28;;;;;;;7.45;3.13;;;;;;;;;;5047815;28;20071;-61
2023/07/08 00:42:53;;;;;;;6.63;3.03;;;;;;;;;;5042232;28;20057;-61
2023/07/08 00:45:34;;;;;;;7.00;2.83;;;;;;;;;;5035132;28;20041;-64
2023/07/08 00:48:05;;;;;;;3.97;2.80;;;;;;;;;;5034755;28;20445;-61
2023/07/08 00:50:31;;;;;;;4.45;2.88;;;;;;;;;;5050776;28;20029;-61
2023/07/08 00:53:21;;;;;;;5.25;2.95;;;;;;;;;;5032081;28;20029;-60
2023/07/08 00:55:46;;;;;;;5.22;2.90;;;;;;;;;;5046821;28;20036;-62
2023/07/08 00:58:11;;;;;;;5.20;2.85;;;;;;;;;;5039973;28;20033;-60
2023/07/08 01:00:37;;;;;;;4.80;2.80;;;;;;;;;;5036834;28;20017;-61
2023/07/08 01:03:03;;;;;;;6.05;2.72;;;;;;;;;;5030955;28;20041;-62
2023/07/08 01:05:30;;;;;;;5.35;2.80;;;;;;;;;;5045603;28;20034;-62
2023/07/08 01:07:59;;;;;;;4.65;3.00;;;;;;;;;;5043278;28;20128;-61
2023/07/08 01:10:32;;;;;;;6.90;3.17;;;;;;;;;;5036672;28;20036;-61
2023/07/08 01:13:02;;;;;;;5.82;2.85;;;;;;;;;;5071649;28;20110;-61
2023/07/08 01:15:32;;;;;;;5.85;2.70;;;;;;;;;;5070806;28;20028;-61
2023/07/08 01:17:58;;;;;;;5.07;3.05;;;;;;;;;;5061879;28;20041;-61
2023/07/08 01:20:24;;;;;;;5.13;3.13;;;;;;;;;;5042508;28;20029;-61
2023/07/08 01:22:50;;;;;;;6.40;3.22;;;;;;;;;;5028843;28;20414;-60
2023/07/08 01:25:15;;;;;;;6.82;3.08;;;;;;;;;;5034504;28;20036;-61
2023/07/08 01:27:46;;;;;;;5.13;3.15;;;;;;;;;;5049431;28;20031;-61
2023/07/08 01:30:14;;;;;;;7.20;3.50;;;;;;;;;;5055548;28;20029;-61
2023/07/08 01:32:45;;;;;;;7.25;3.03;;;;;;;;;;5048294;28;20580;-61
2023/07/08 01:35:12;;;;;;;4.90;3.08;;;;;;;;;;5038370;28;20044;-61
2023/07/08 01:37:44;;;;;;;7.28;3.08;;;;;;;;;;5031219;28;20128;-62
2023/07/08 01:40:19;;;;;;;4.28;3.10;;;;;;;;;;5046627;28;20071;-61
2023/07/08 01:42:45;;;;;;;4.65;3.20;;;;;;;;;;5040814;28;20069;-61
2023/07/08 01:45:15;;;;;;;5.00;2.97;;;;;;;;;;5031412;28;20084;-61
2023/07/08 01:47:48;;;;;;;7.25;2.95;;;;;;;;;;5039777;28;20107;-61
2023/07/08 01:50:14;;;;;;;4.93;3.08;;;;;;;;;;5038565;28;20044;-60
2023/07/08 01:52:40;;;;;;;5.20;3.00;;;;;;;;;;5028747;28;20025;-61
2023/07/08 01:55:06;;;;;;;7.00;3.17;;;;;;;;;;5033781;28;20102;-61
2023/07/08 01:57:31;;;;;;;7.43;3.22;;;;;;;;;;5041333;28;20429;-61
2023/07/08 01:59:57;;;;;;;5.50;3.42;;;;;;;;;;5030597;28;20040;-60
2023/07/08 02:02:24;;;;;;;5.47;3.00;;;;;;;;;;5030567;28;20029;-64
2023/07/08 02:04:50;;;;;;;6.95;3.22;;;;;;;;;;5031130;28;20056;-60
2023/07/08 02:07:15;;;;;;;5.25;3.00;;;;;;;;;;5044338;28;20033;-62
2023/07/08 02:09:41;;;;;;;4.65;3.20;;;;;;;;;;5045775;28;20272;-62
2023/07/08 02:12:06;;;;;;;5.20;3.15;;;;;;;;;;5042725;28;20531;-61
2023/07/08 02:14:32;;;;;;;5.32;3.00;;;;;;;;;;5051818;28;20029;-62
2023/07/08 02:16:57;;;;;;;5.10;3.00;;;;;;;;;;5036478;28;20032;-61
2023/07/08 02:19:24;;;;;;;5.85;2.92;;;;;;;;;;5034108;28;20033;-66
2023/07/08 02:21:51;;;;;;;4.78;2.78;;;;;;;;;;5046752;28;20032;-63
2023/07/08 02:24:17;;;;;;;5.60;3.42;;;;;;;;;;5038679;28;20427;-61
2023/07/08 02:26:42;;;;;;;5.97;3.13;;;;;;;;;;5051657;28;20029;-61
2023/07/08 02:29:08;;;;;;;8.48;3.08;;;;;;;;;;5045306;28;20049;-60
2023/07/08 02:31:33;;;;;;;4.07;2.90;;;;;;;;;;5039315;28;20057;-60
2023/07/08 02:33:58;;;;;;;5.22;3.17;;;;;;;;;;5034959;28;20040;-64
2023/07/08 02:36:24;;;;;;;4.95;3.30;;;;;;;;;;5031766;28;20048;-66
2023/07/08 02:38:50;;;;;;;4.82;3.20;;;;;;;;;;5034446;28;20116;-62
2023/07/08 02:41:16;;;;;;;5.72;3.38;;;;;;;;;;5040299;28;20033;-63
2023/07/08 02:43:41;;;;;;;6.35;3.40;;;;;;;;;;5052460;28;20174;-62
2023/07/08 02:46:07;;;;;;;6.65;3.40;;;;;;;;;;5040461;28;20037;-61
2023/07/08 02:48:32;;;;;;;5.10;3.30;;;;;;;;;;5033196;28;20382;-62
2023/07/08 02:50:59;;;;;;;7.22;3.22;;;;;;;;;;5052084;28;20037;-61
2023/07/08 02:53:25;;;;;;;6.88;3.50;;;;;;;;;;5032602;28;21303;-66
2023/07/08 02:55:50;;;;;;;5.82;3.20;;;;;;;;;;5053264;28;20481;-62
2023/07/08 02:58:16;;;;;;;4.45;3.10;;;;;;;;;;5033522;28;20026;-61
2023/07/08 03:00:41;;;;;;;6.88;3.40;;;;;;;;;;5036597;28;20513;-61
2023/07/08 03:03:06;;;;;;;5.75;3.63;;;;;;;;;;5036236;28;20026;-62
2023/07/08 03:05:32;;;;;;;7.20;3.10;;;;;;;;;;5051577;28;21207;-62
2023/07/08 03:07:58;;;;;;;6.95;3.60;;;;;;;;;;5052757;28;20029;-61
2023/07/08 03:10:24;;;;;;;8.40;3.63;;;;;;;;;;5043326;28;20535;-66
2023/07/08 03:12:49;;;;;;;5.63;3.42;;;;;;;;;;5034039;28;20036;-61
2023/07/08 03:15:15;;;;;;;7.15;3.53;;;;;;;;;;5040377;28;20079;-60
2023/07/08 03:17:41;;;;;;;6.07;3.53;;;;;;;;;;5046319;28;20083;-61
2023/07/08 03:20:08;;;;;;;7.38;3.75;;;;;;;;;;5047317;28;20036;-61
2023/07/08 03:22:34;;;;;;;9.82;3.55;;;;;;;;;;5031862;28;20037;-61
2023/07/08 03:24:59;;;;;;;5.15;3.63;;;;;;;;;;5050206;28;20929;-61
2023/07/08 03:27:24;;;;;;;7.22;3.60;;;;;;;;;;5052950;28;20028;-65
2023/07/08 03:29:50;;;;;;;8.68;3.70;;;;;;;;;;5050899;28;20037;-61
2023/07/08 03:32:15;;;;;;;5.00;3.60;;;;;;;;;;5037832;28;20029;-61
2023/07/08 03:34:41;;;;;;;6.18;3.60;;;;;;;;;;5030766;28;20120;-62
2023/07/08 03:37:06;;;;;;;7.97;3.40;;;;;;;;;;5046589;28;20117;-61
2023/07/08 03:39:32;;;;;;;5.25;3.72;;;;;;;;;;5033178;28;20040;-61
2023/07/08 03:41:57;;;;;;;6.03;3.45;;;;;;;;;;5035120;28;20103;-61
2023/07/08 03:44:23;;;;;;;6.38;3.88;;;;;;;;;;5031586;28;20480;-61
2023/07/08 03:46:49;;;;;;;9.70;3.67;;;;;;;;;;5030449;28;20093;-61
2023/07/08 03:49:24;;;;;;;5.55;3.50;;;;;;;;;;5052596;28;20083;-62
2023/07/08 03:51:54;;;;;;;7.10;3.50;;;;;;;;;;5045437;28;20053;-60
2023/07/08 03:54:23;;;;;;;6.20;3.72;;;;;;;;;;5037486;28;20037;-60
2023/07/08 03:56:49;;;;;;;6.50;3.60;;;;;;;;;;5031361;28;20279;-61
2023/07/08 03:59:15;;;;;;;8.10;4.00;;;;;;;;;;5032160;28;20131;-60
2023/07/08 04:01:41;;;;;;;6.93;3.70;;;;;;;;;;5031508;28;20480;-60
2023/07/08 04:04:08;;;;;;;6.35;3.80;;;;;;;;;;5038301;28;20029;-62
2023/07/08 04:06:34;;;;;;;7.45;3.90;;;;;;;;;;5042008;28;20067;-63
2023/07/08 04:08:59;;;;;;;5.15;3.80;;;;;;;;;;5032469;28;20458;-62
2023/07/08 04:11:26;;;;;;;6.22;3.63;;;;;;;;;;5032234;28;20037;-60
2023/07/08 04:13:52;;;;;;;6.00;3.70;;;;;;;;;;5038400;28;20091;-62
2023/07/08 04:16:24;;;;;;;5.65;3.78;;;;;;;;;;5040815;28;20512;-62
2023/07/08 04:18:50;;;;;;;9.68;3.85;;;;;;;;;;5036907;28;20213;-62
2023/07/08 04:21:17;;;;;;;5.88;3.65;;;;;;;;;;5053079;28;20087;-61
2023/07/08 04:23:42;;;;;;;5.05;3.72;;;;;;;;;;5041381;28;20036;-63
2023/07/08 04:26:08;;;;;;;7.85;3.65;;;;;;;;;;5051084;28;20041;-61
2023/07/08 04:28:34;;;;;;;5.97;3.95;;;;;;;;;;5051599;28;20029;-62
2023/07/08 04:30:59;;;;;;;5.97;3.83;;;;;;;;;;5046089;28;20037;-62
2023/07/08 04:33:24;;;;;;;6.22;3.55;;;;;;;;;;5047106;28;20060;-62
2023/07/08 04:35:50;;;;;;;8.90;3.40;;;;;;;;;;5030535;28;20096;-62
2023/07/08 04:38:21;;;;;;;7.38;3.50;;;;;;;;;;5046504;28;20040;-63
2023/07/08 04:40:47;;;;;;;6.05;3.83;;;;;;;;;;5046979;28;20040;-62
2023/07/08 04:43:14;;;;;;;10.32;3.60;;;;;;;;;;5038907;28;20095;-61
2023/07/08 04:45:42;;;;;;;5.03;3.42;;;;;;;;;;5034948;28;20055;-61
2023/07/08 04:48:12;;;;;;;6.70;3.97;;;;;;;;;;5032964;28;20032;-62
2023/07/08 04:50:43;;;;;;;4.80;3.40;;;;;;;;;;5031630;28;20485;-62
2023/07/08 04:53:10;;;;;;;7.93;3.85;;;;;;;;;;5036331;28;20037;-61
2023/07/08 04:55:37;;;;;;;7.88;3.63;;;;;;;;;;5046200;28;20034;-62
2023/07/08 04:58:03;;;;;;;7.53;3.53;;;;;;;;;;5034909;28;20079;-61
2023/07/08 05:00:29;;;;;;;5.90;3.60;;;;;;;;;;5032015;28;20035;-61
2023/07/08 05:02:54;;;;;;;6.53;3.47;;;;;;;;;;5030712;28;20037;-61
2023/07/08 05:05:20;;;;;;;5.88;3.35;;;;;;;;;;5048948;28;20371;-61
2023/07/08 05:07:46;;;;;;;7.22;3.50;;;;;;;;;;5040426;28;20034;-60
2023/07/08 05:10:11;;;;;;;6.68;3.70;;;;;;;;;;5031125;28;20032;-61
2023/07/08 05:12:37;;;;;;;6.88;3.50;;;;;;;;;;5047856;28;20025;-63
2023/07/08 05:15:03;;;;;;;6.35;3.85;;;;;;;;;;5033664;28;20033;-61
2023/07/08 05:17:29;;;;;;;5.18;3.50;;;;;;;;;;5046903;28;20393;-61
2023/07/08 05:19:57;;;;;;;6.03;3.50;;;;;;;;;;5075456;28;20028;-61
2023/07/08 05:22:25;;;;;;;6.53;3.70;;;;;;;;;;5074419;28;20056;-61
2023/07/08 05:24:52;;;;;;;5.78;3.47;;;;;;;;;;5067133;28;20052;-61
2023/07/08 05:27:18;;;;;;;6.05;3.33;;;;;;;;;;5062570;28;20040;-61
2023/07/08 05:29:45;;;;;;;12.07;3.60;;;;;;;;;;5059349;28;20044;-60
2023/07/08 05:32:10;;;;;;;8.27;3.72;;;;;;;;;;5068748;28;20041;-60
2023/07/08 05:34:36;;;;;;;7.47;3.38;;;;;;;;;;5060285;28;20028;-64
2023/07/08 05:37:01;;;;;;;5.10;3.28;;;;;;;;;;5071312;28;20063;-63
2023/07/08 05:39:27;;;;;;;5.80;3.72;;;;;;;;;;5064573;28;20120;-62
2023/07/08 05:41:52;;;;;;;6.00;3.60;;;;;;;;;;5050357;28;20116;-62
2023/07/08 05:44:17;;;;;;;6.68;3.47;;;;;;;;;;5070807;28;20032;-61
2023/07/08 05:46:43;;;;;;;6.18;3.60;;;;;;;;;;5068789;28;20040;-62
2023/07/08 05:49:08;;;;;;;8.27;4.50;;;;;;;;;;5074149;28;20027;-62
2023/07/08 05:51:34;;;;;;;7.70;3.45;;;;;;;;;;5051174;28;20472;-66
2023/07/08 05:54:00;;;;;;;8.43;3.47;;;;;;;;;;5074775;28;20029;-62
2023/07/08 05:56:25;;;;;;;5.30;3.20;;;;;;;;;;5069210;28;20033;-61
2023/07/08 05:58:51;;;;;;;6.63;3.55;;;;;;;;;;5072196;28;20537;-63
2023/07/08 06:01:16;;;;;;;7.10;3.53;;;;;;;;;;5070212;28;20166;-60
2023/07/08 06:03:42;;;;;;;6.88;3.35;;;;;;;;;;5074123;28;20036;-60
2023/07/08 06:06:07;;;;;;;8.20;3.40;;;;;;;;;;5073547;28;20407;-61
2023/07/08 06:08:32;;;;;;;6.55;3.63;;;;;;;;;;5037483;28;20389;-62
2023/07/08 06:10:58;;;;;;;6.43;3.60;;;;;;;;;;5032811;28;20470;-61
2023/07/08 06:13:23;;;;;;;7.35;3.67;;;;;;;;;;5071917;28;20397;-62
2023/07/08 06:15:49;;;;;;;5.18;3.33;;;;;;;;;;5073859;28;20454;-61
2023/07/08 06:18:14;;;;;;;5.30;3.30;;;;;;;;;;5071505;28;20121;-61
2023/07/08 06:20:40;;;;;;;6.95;3.80;;;;;;;;;;5073646;28;20392;-61
2023/07/08 06:23:05;;;;;;;6.57;3.65;;;;;;;;;;5066465;28;20230;-60
2023/07/08 06:25:32;;;;;;;7.68;3.50;;;;;;;;;;5054457;28;20545;-60
2023/07/08 06:27:57;;;;;;;6.15;3.42;;;;;;;;;;5065192;28;20056;-61
2023/07/08 06:30:23;;;;;;;6.20;3.60;;;;;;;;;;5072194;28;20071;-60
2023/07/08 06:32:48;;;;;;;6.18;3.50;;;;;;;;;;5073710;28;20036;-61
2023/07/08 06:35:14;;;;;;;9.68;3.70;;;;;;;;;;5074411;28;20024;-61
2023/07/08 06:37:40;;;;;;;7.00;3.70;;;;;;;;;;5073231;28;20038;-65
2023/07/08 06:40:06;;;;;;;5.43;3.45;;;;;;;;;;5054272;28;20037;-62
2023/07/08 06:42:31;;;;;;;7.07;3.58;;;;;;;;;;5046462;28;20033;-61
2023/07/08 06:44:56;;;;;;;7.28;3.47;;;;;;;;;;5036139;28;20038;-63
2023/07/08 06:47:22;;;;;;;5.07;3.20;;;;;;;;;;5041725;28;20112;-61
2023/07/08 06:49:48;;;;;;;5.00;3.40;;;;;;;;;;5045869;28;20462;-61
2023/07/08 06:52:14;;;;;;;6.63;3.60;;;;;;;;;;5048773;28;20462;-61
2023/07/08 06:54:40;;;;;;;5.68;3.60;;;;;;;;;;5053661;28;20029;-64
2023/07/08 06:57:06;;;;;;;8.43;3.58;;;;;;;;;;5054269;28;20024;-60
2023/07/08 06:59:31;;;;;;;5.72;3.53;;;;;;;;;;5036081;28;20112;-61
2023/07/08 07:01:57;;;;;;;8.55;3.90;;;;;;;;;;5038221;28;20235;-60
2023/07/08 07:04:22;;;;;;;5.95;3.92;;;;;;;;;;5066719;28;20040;-61
2023/07/08 07:06:48;;;;;;;6.53;3.60;;;;;;;;;;5058808;28;20033;-63
2023/07/08 07:09:13;;;;;;;7.75;3.80;;;;;;;;;;5082190;28;20116;-61
2023/07/08 07:11:38;;;;;;;7.22;3.97;;;;;;;;;;5060355;28;20098;-64
2023/07/08 07:14:04;;;;;;;6.75;3.65;;;;;;;;;;5064882;28;20028;-60
2023/07/08 07:16:29;;;;;;;10.95;4.20;;;;;;;;;;5043232;28;20031;-61
2023/07/08 07:18:55;;;;;;;7.50;3.40;;;;;;;;;;5064426;28;20040;-60
2023/07/08 07:21:22;;;;;;;8.07;3.80;;;;;;;;;;5031633;28;20025;-60
2023/07/08 07:23:47;;;;;;;6.60;3.75;;;;;;;;;;5033881;28;20037;-60
2023/07/08 07:26:13;;;;;;;8.07;4.00;;;;;;;;;;5033514;28;20087;-60
2023/07/08 07:28:39;;;;;;;8.15;3.60;;;;;;;;;;5033474;28;20038;-64
2023/07/08 07:31:07;;;;;;;8.15;4.00;;;;;;;;;;5032664;28;20032;-61
2023/07/08 07:33:33;;;;;;;6.38;3.63;;;;;;;;;;5051363;28;20043;-61
2023/07/08 07:35:59;;;;;;;7.95;4.10;;;;;;;;;;5051278;28;20037;-61
2023/07/08 07:38:28;;;;;;;7.15;3.72;;;;;;;;;;5049168;28;20179;-61
2023/07/08 07:40:59;;;;;;;9.40;3.55;;;;;;;;;;5050391;28;20029;-63
2023/07/08 07:43:25;;;;;;;7.75;3.85;;;;;;;;;;5036101;28;20041;-61
2023/07/08 07:45:52;;;;;;;6.07;3.67;;;;;;;;;;5052265;28;20052;-63
2023/07/08 07:48:19;;;;;;;6.60;3.72;;;;;;;;;;5052493;28;20032;-60
2023/07/08 07:50:49;;;;;;;9.45;3.85;;;;;;;;;;5060209;28;20106;-65
2023/07/08 07:53:14;;;;;;;8.90;3.65;;;;;;;;;;5054301;28;20025;-62
2023/07/08 07:55:40;;;;;;;5.75;3.70;;;;;;;;;;5054208;28;20040;-62
2023/07/08 07:58:06;;;;;;;6.93;3.75;;;;;;;;;;5048299;28;20081;-66
2023/07/08 08:00:31;;;;;;;6.63;3.70;;;;;;;;;;5041081;28;20041;-61
2023/07/08 08:02:57;;;;;;;6.53;3.78;;;;;;;;;;5042078;28;20037;-62
2023/07/08 08:05:23;;;;;;;5.97;3.50;;;;;;;;;;5032414;28;20029;-61
2023/07/08 08:07:48;;;;;;;6.65;3.97;;;;;;;;;;5040799;28;20108;-61
2023/07/08 08:10:14;;;;;;;7.82;3.47;;;;;;;;;;5032666;28;20112;-60
2023/07/08 08:12:39;;;;;;;7.50;4.07;;;;;;;;;;5032458;28;20042;-61
2023/07/08 08:15:05;;;;;;;7.75;3.78;;;;;;;;;;5051593;28;20484;-61
2023/07/08 08:17:31;;;;;;;5.65;3.80;;;;;;;;;;5051991;28;20029;-60
2023/07/08 08:19:56;;;;;;;6.97;4.00;;;;;;;;;;5051353;28;20040;-61
2023/07/08 08:22:22;;;;;;;5.93;3.85;;;;;;;;;;5050953;28;20108;-60
2023/07/08 08:24:47;;;;;;;7.95;3.88;;;;;;;;;;5050950;28;20473;-62
2023/07/08 08:27:12;;;;;;;8.02;3.95;;;;;;;;;;5050862;28;20033;-62
2023/07/08 08:29:38;;;;;;;6.72;4.28;;;;;;;;;;5052079;28;20033;-62
2023/07/08 08:32:04;;;;;;;6.70;4.03;;;;;;;;;;5051006;28;20290;-62
2023/07/08 08:34:29;;;;;;;9.70;4.30;;;;;;;;;;5052150;28;20052;-61
2023/07/08 08:36:55;;;;;;;6.43;4.20;;;;;;;;;;5050782;28;20036;-61
2023/07/08 08:39:21;;;;;;;7.05;4.20;;;;;;;;;;5051453;28;20044;-62
2023/07/08 08:41:47;;;;;;;7.00;3.80;;;;;;;;;;5050508;28;20037;-63
2023/07/08 08:44:15;;;;;;;6.55;4.20;;;;;;;;;;5052227;28;20102;-61
2023/07/08 08:46:40;;;;;;;10.25;3.90;;;;;;;;;;5051810;28;20035;-63
2023/07/08 08:49:23;;;;;;;7.95;3.97;;;;;;;;;;5050958;28;20033;-62
2023/07/08 08:51:49;;;;;;;7.28;4.25;;;;;;;;;;5050734;28;20442;-62
2023/07/08 08:54:15;;;;;;;8.57;4.40;;;;;;;;;;5050690;28;20048;-61
2023/07/08 08:56:52;;;;;;;6.18;4.10;;;;;;;;;;5045887;28;20049;-60
2023/07/08 08:59:34;;;;;;;7.55;4.38;;;;;;;;;;5058934;28;20333;-61
2023/07/08 09:02:02;;;;;;;5.97;4.07;;;;;;;;;;5078088;28;20035;-64
2023/07/08 09:04:35;;;;;;;7.53;4.35;;;;;;;;;;5049236;28;20037;-61
2023/07/08 09:07:17;;;;;;;7.20;4.20;;;;;;;;;;5055007;28;20033;-61
2023/07/08 09:10:03;;;;;;;8.02;4.28;;;;;;;;;;5041521;28;20022;-60
2023/07/08 09:12:30;;;;;;;5.95;4.22;;;;;;;;;;5031951;28;20492;-62
2023/07/08 09:14:56;;;;;;;7.43;3.95;;;;;;;;;;5041796;28;20069;-61
2023/07/08 09:17:33;;;;;;;8.75;4.30;;;;;;;;;;5053288;28;20037;-61
2023/07/08 09:20:24;;;;;;;8.57;4.60;;;;;;;;;;5069767;28;20042;-61
2023/07/08 09:23:07;;;;;;;14.23;4.22;;;;;;;;;;5071013;28;20029;-62
2023/07/08 09:25:38;;;;;;;7.55;4.45;;;;;;;;;;5075717;28;20025;-61
2023/07/08 09:28:04;;;;;;;7.47;4.25;;;;;;;;;;5074326;28;20464;-64
2023/07/08 09:30:30;;;;;;;6.57;4.20;;;;;;;;;;5073081;28;20036;-62
2023/07/08 09:32:56;;;;;;;9.27;4.45;;;;;;;;;;5054615;28;20114;-61
2023/07/08 09:35:25;;;;;;;7.85;4.53;;;;;;;;;;5075287;28;20103;-62
2023/07/08 09:37:52;;;;;;;6.88;4.50;;;;;;;;;;5074108;28;20416;-62
2023/07/08 09:40:31;;;;;;;7.43;4.45;;;;;;;;;;5075140;28;20384;-62
2023/07/08 09:43:27;;;;;;;8.90;4.50;;;;;;;;;;5071335;28;20063;-62
2023/07/08 09:45:57;;;;;;;7.15;4.60;;;;;;;;;;5060364;28;20053;-61
2023/07/08 09:48:41;;;;;;;;;;;;;;;;;;5048847;28;20114;-62
2023/07/08 09:51:08;;;;;;;9.95;4.53;;;;;;;;;;5056197;28;19927;-61
2023/07/08 09:53:34;;;;;;;6.78;4.78;;;;;;;;;;5035087;28;20030;-61
2023/07/08 09:56:03;;;;;;;8.30;4.55;;;;;;;;;;5034319;28;20037;-61
2023/07/08 09:58:37;;;;;;;8.60;4.82;;;;;;;;;;5043481;28;20033;-61
2023/07/08 10:01:13;;;;;;;8.60;5.03;;;;;;;;;;5072908;28;20469;-61
2023/07/08 10:03:38;;;;;;;8.00;4.40;;;;;;;;;;5074633;28;20032;-61
2023/07/08 10:06:14;;;;;;;8.35;4.75;;;;;;;;;;5049783;28;20031;-61
2023/07/08 10:08:44;;;;;;;9.63;4.95;;;;;;;;;;5074400;28;20119;-61
2023/07/08 10:11:23;;;;;;;11.35;4.80;;;;;;;;;;5052414;28;20067;-62
2023/07/08 10:13:52;;;;;;;10.07;4.85;;;;;;;;;;5068456;28;20040;-62
2023/07/08 10:16:29;;;;;;;7.65;4.80;;;;;;;;;;5065314;28;20492;-62
2023/07/08 10:18:55;;;;;;;10.07;4.80;;;;;;;;;;5053927;28;20539;-62
2023/07/08 10:21:52;;;;;;;6.63;4.78;;;;;;;;;;5052262;28;20053;-62
2023/07/08 10:24:33;;;;;;;7.32;5.15;;;;;;;;;;5034280;28;20026;-62
2023/07/08 10:27:18;;;;;;;6.85;4.65;;;;;;;;;;5048310;28;20044;-62
2023/07/08 10:29:53;;;;;;;9.68;5.50;;;;;;;;;;5063366;28;20120;-63
2023/07/08 10:32:52;;;;;;;11.82;4.90;;;;;;;;;;5067133;28;20040;-62
2023/07/08 10:35:33;;;;;;;8.02;4.63;;;;;;;;;;5068404;28;20036;-62
2023/07/08 10:38:13;;;;;;;9.48;4.85;;;;;;;;;;5073479;28;20522;-62
2023/07/08 10:40:56;;;;;;;10.40;4.88;;;;;;;;;;5035876;28;20505;-61
2023/07/08 10:43:37;;;;;;;8.45;4.90;;;;;;;;;;5033971;28;20088;-61
2023/07/08 10:46:24;;;;;;;7.47;4.85;;;;;;;;;;5033940;28;20521;-61
2023/07/08 10:49:20;;;;;;;7.65;4.68;;;;;;;;;;5055298;28;20036;-62
2023/07/08 10:52:13;;;;;;;7.57;4.80;;;;;;;;;;5073710;28;20033;-62
2023/07/08 10:55:01;;;;;;;9.98;5.07;;;;;;;;;;5044174;28;20043;-62
2023/07/08 10:57:45;;;;;;;9.13;4.97;;;;;;;;;;5048465;28;20671;-62
2023/07/08 11:00:27;;;;;;;7.28;4.80;;;;;;;;;;5053085;28;20874;-62
2023/07/08 11:03:14;;;;;;;7.90;4.47;;;;;;;;;;5053461;28;20033;-62
2023/07/08 11:05:39;;;;;;;7.05;4.57;;;;;;;;;;5048003;28;20474;-63
2023/07/08 11:08:31;;;;;;;6.43;4.18;;;;;;;;;;5052813;28;20063;-63
2023/07/08 11:11:06;;;;;;;5.82;4.15;;;;;;;;;;5052834;28;20029;-63
2023/07/08 11:13:36;;;;;;;8.82;4.00;;;;;;;;;;5053599;28;20378;-62
2023/07/08 11:16:19;;;;;;;8.13;4.00;;;;;;;;;;5051038;28;20037;-61
2023/07/08 11:19:04;;;;;;;7.13;3.83;;;;;;;;;;5051360;28;20049;-61
2023/07/08 11:21:37;;;;;;;15.45;3.88;;;;;;;;;;5053159;28;20029;-62
2023/07/08 11:24:36;;;;;;;5.78;3.45;;;;;;;;;;5052946;28;20104;-62
2023/07/08 11:27:14;;;;;;;11.02;3.80;;;;;;;;;;5052589;28;20040;-62
2023/07/08 11:29:54;;;;;;;6.20;3.50;;;;;;;;;;5049924;28;20048;-62
2023/07/08 11:32:23;;;;;;;7.40;3.90;;;;;;;;;;5033232;28;20108;-62
2023/07/08 11:34:51;;;;;;;5.27;3.30;;;;;;;;;;5060241;28;20401;-64
2023/07/08 11:37:20;;;;;;;8.57;3.78;;;;;;;;;;5062405;28;20475;-61
2023/07/08 11:39:46;;;;;;;8.45;3.33;;;;;;;;;;5063489;28;20029;-63
2023/07/08 11:42:38;;;;;;;4.60;3.15;;;;;;;;;;5052186;28;20052;-63
2023/07/08 11:45:13;;;;;;;4.85;3.22;;;;;;;;;;5063885;28;20461;-62
2023/07/08 11:47:46;;;;;;;5.25;3.45;;;;;;;;;;5066263;28;20020;-61
2023/07/08 11:50:25;;;;;;;4.32;3.15;;;;;;;;;;5071396;28;20115;-61
2023/07/08 11:53:08;;;;;;;6.38;3.65;;;;;;;;;;5072984;28;20377;-61
2023/07/08 11:55:58;;;;;;;6.18;3.42;;;;;;;;;;5041792;28;20403;-61
2023/07/08 11:58:26;;;;;;;;;;;;;;;;;;5046182;28;20477;-60
2023/07/08 12:01:04;;;;;;;7.57;3.20;;;;;;;;;;5072767;28;20288;-61
2023/07/08 12:03:53;;;;;;;6.60;3.75;;;;;;;;;;5057875;28;20504;-61
2023/07/08 12:06:28;;;;;;;5.65;3.70;;;;;;;;;;5036996;28;20029;-62
2023/07/08 12:08:55;;;;;;;5.95;3.30;;;;;;;;;;5043482;28;20045;-62
2023/07/08 12:11:27;;;;;;;5.45;3.40;;;;;;;;;;5052036;28;20028;-62
2023/07/08 12:13:57;;;;;;;7.07;3.50;;;;;;;;;;5057682;28;20036;-62
2023/07/08 12:16:22;;;;;;;6.93;3.83;;;;;;;;;;5072301;28;20490;-62
2023/07/08 12:18:49;;;;;;;6.22;3.90;;;;;;;;;;5058190;28;20037;-62
2023/07/08 12:21:15;;;;;;;5.70;3.47;;;;;;;;;;5060135;28;20036;-62
2023/07/08 12:23:47;;;;;;;5.18;3.47;;;;;;;;;;5053105;28;20024;-62
2023/07/08 12:26:13;;;;;;;6.85;3.55;;;;;;;;;;5071329;28;20047;-62
2023/07/08 12:28:39;;;;;;;6.35;3.45;;;;;;;;;;5071980;28;20036;-62
2023/07/08 12:31:15;;;;;;;5.00;3.28;;;;;;;;;;5060397;28;20413;-62
2023/07/08 12:33:41;;;;;;;5.60;3.60;;;;;;;;;;5031281;28;20074;-61
2023/07/08 12:36:10;;;;;;;5.63;3.47;;;;;;;;;;5044830;28;20030;-62
2023/07/08 12:38:39;;;;;;;5.70;3.47;;;;;;;;;;5048984;28;20119;-61
2023/07/08 12:41:20;;;;;;;5.30;3.60;;;;;;;;;;5030958;28;20033;-62
2023/07/08 12:43:46;;;;;;;5.72;3.50;;;;;;;;;;5039624;28;20056;-61
2023/07/08 12:46:13;;;;;;;6.88;3.58;;;;;;;;;;5067141;28;20064;-62
2023/07/08 12:48:40;;;;;;;6.05;3.45;;;;;;;;;;5071823;28;20033;-62
2023/07/08 12:51:13;;;;;;;4.90;3.42;;;;;;;;;;5073008;28;20032;-63
2023/07/08 12:53:39;;;;;;;5.22;3.50;;;;;;;;;;5072056;28;20028;-62
2023/07/08 12:56:06;;;;;;;7.50;3.65;;;;;;;;;;5051060;28;20029;-63
2023/07/08 12:58:40;;;;;;;6.10;3.55;;;;;;;;;;5040016;28;20529;-62
2023/07/08 13:01:06;;;;;;;6.28;3.40;;;;;;;;;;5050929;28;20043;-62
2023/07/08 13:03:42;;;;;;;5.53;3.50;;;;;;;;;;5060188;28;20038;-63
2023/07/08 13:06:10;;;;;;;5.93;3.53;;;;;;;;;;5039223;28;20033;-64
2023/07/08 13:08:37;;;;;;;5.75;3.47;;;;;;;;;;5050739;28;20036;-62
2023/07/08 13:11:06;;;;;;;5.22;3.70;;;;;;;;;;5035661;28;20032;-62
2023/07/08 13:13:54;;;;;;;6.60;3.35;;;;;;;;;;5049418;28;20028;-62
2023/07/08 13:16:22;;;;;;;5.45;3.42;;;;;;;;;;5050690;28;20040;-62
2023/07/08 13:18:47;;;;;;;4.55;3.55;;;;;;;;;;5052602;28;20040;-63
2023/07/08 13:21:15;;;;;;;7.35;3.45;;;;;;;;;;5058008;28;20044;-62
2023/07/08 13:23:41;;;;;;;5.78;3.60;;;;;;;;;;5071690;28;20032;-62
2023/07/08 13:26:23;;;;;;;7.00;3.58;;;;;;;;;;5058689;28;20040;-62
2023/07/08 13:28:49;;;;;;;5.53;3.42;;;;;;;;;;5048889;28;20037;-62
2023/07/08 13:31:18;;;;;;;5.30;3.50;;;;;;;;;;5050698;28;20032;-62
2023/07/08 13:33:47;;;;;;;;;;;;;;;;;;5031696;28;20029;-63
2023/07/08 13:36:16;;;;;;;4.90;3.05;;;;;;;;;;5035872;28;19915;-62
2023/07/08 13:38:41;;;;;;;6.57;3.40;;;;;;;;;;5051455;28;20033;-62
2023/07/08 13:41:08;;;;;;;6.63;3.80;;;;;;;;;;5050459;28;20052;-63
2023/07/08 13:43:37;;;;;;;5.80;3.40;;;;;;;;;;5054770;28;20040;-63
2023/07/08 13:46:03;;;;;;;4.78;3.13;;;;;;;;;;5059412;28;20045;-63
2023/07/08 13:48:39;;;;;;;5.35;3.30;;;;;;;;;;5044264;28;20037;-63
2023/07/08 13:51:19;;;;;;;5.30;3.42;;;;;;;;;;5051436;28;20417;-65
2023/07/08 13:53:47;;;;;;;6.30;3.17;;;;;;;;;;5051143;28;20116;-63
2023/07/08 13:56:33;;;;;;;6.55;3.40;;;;;;;;;;5055416;28;20078;-65
2023/07/08 13:59:05;;;;;;;5.80;3.60;;;;;;;;;;5071088;28;20098;-64
2023/07/08 14:01:33;;;;;;;6.95;3.33;;;;;;;;;;5069488;28;20032;-66
2023/07/08 14:04:02;;;;;;;8.02;3.17;;;;;;;;;;5049882;28;20103;-65
2023/07/08 14:06:37;;;;;;;6.95;3.20;;;;;;;;;;5050514;28;20116;-65
2023/07/08 14:09:19;;;;;;;5.57;3.35;;;;;;;;;;5055916;28;20041;-66
2023/07/08 14:11:45;;;;;;;7.22;3.50;;;;;;;;;;5073964;28;20032;-64
2023/07/08 14:14:12;;;;;;;6.95;3.30;;;;;;;;;;5073931;28;20040;-64
2023/07/08 14:16:42;;;;;;;5.70;3.60;;;;;;;;;;5073410;28;20032;-65
2023/07/08 14:19:13;;;;;;;5.53;3.33;;;;;;;;;;5069345;28;20039;-66
2023/07/08 14:21:38;;;;;;;6.47;3.38;;;;;;;;;;5035706;28;20045;-64
2023/07/08 14:24:14;;;;;;;6.18;3.10;;;;;;;;;;5034372;28;20029;-65
2023/07/08 14:26:45;;;;;;;6.03;3.20;;;;;;;;;;5054201;28;20484;-63
2023/07/08 14:29:12;;;;;;;7.60;3.83;;;;;;;;;;5073481;28;20110;-65
2023/07/08 14:31:39;;;;;;;5.22;3.08;;;;;;;;;;5074281;28;20037;-65
2023/07/08 14:34:11;;;;;;;7.32;3.15;;;;;;;;;;5072252;28;20496;-65
2023/07/08 14:36:37;;;;;;;5.97;3.55;;;;;;;;;;5068548;28;20434;-64
2023/07/08 14:39:14;;;;;;;6.57;3.60;;;;;;;;;;5072613;28;20488;-64
2023/07/08 14:41:41;;;;;;;4.38;3.20;;;;;;;;;;5073751;28;20028;-64
2023/07/08 14:44:20;;;;;;;7.70;3.17;;;;;;;;;;5073321;28;20381;-63
2023/07/08 14:46:45;;;;;;;5.90;3.50;;;;;;;;;;5076102;28;20033;-65
2023/07/08 14:49:22;;;;;;;4.97;3.22;;;;;;;;;;5072497;28;20537;-64
2023/07/08 14:51:48;;;;;;;7.32;3.42;;;;;;;;;;5062013;28;20044;-64
2023/07/08 14:54:14;;;;;;;6.88;3.60;;;;;;;;;;5052177;28;20039;-64
2023/07/08 14:56:40;;;;;;;5.55;3.00;;;;;;;;;;5054006;28;20033;-64